Terminal Aerodrome Forecast
Issued by NWS

Home | Current Version | Previous Version | Text Only | Print | Product List | Glossary On
Versions: 1 2 3 4 5 6 7 8 9 10 11 12 13 14 15 16 17 18 19 20 21 22 23 24 25 26 27 28 29 30 31 32 33
000
FTUS45 KGJT 310530
TAFASE
TAF
KASE 310530Z 3106/0106 19006KT P6SM FEW200
     FM311600 01003KT P6SM SCT200
     FM311900 33008KT P6SM FEW090 BKN200
     FM010100 18009KT P6SM FEW110 BKN200=

USA.gov is the U.S. government's official web portal to all federal, state and local government web resources and services.